createdAt,value
2023-12-14T00:01:22.987Z,1.00
2023-12-14T00:03:50.754Z,1.20
2023-12-14T00:06:18.580Z,1.00
2023-12-14T00:08:48.624Z,0.60
2023-12-14T00:11:16.429Z,0.82
2023-12-14T00:13:46.534Z,0.70
2023-12-14T00:16:14.296Z,0.65
2023-12-14T00:18:45.729Z,0.73
2023-12-14T00:21:13.471Z,0.93
2023-12-14T00:23:41.141Z,0.63
2023-12-14T00:26:08.915Z,0.77
2023-12-14T00:28:39.654Z,0.50
2023-12-14T00:31:09.944Z,0.68
2023-12-14T00:33:37.683Z,0.43
2023-12-14T00:36:07.133Z,0.63
2023-12-14T00:38:34.855Z,0.55
2023-12-14T00:41:05.144Z,0.52
2023-12-14T00:43:32.898Z,0.30
2023-12-14T00:46:00.607Z,0.75
2023-12-14T00:48:28.369Z,0.68
2023-12-14T00:50:56.061Z,0.75
2023-12-14T00:53:27.448Z,0.50
2023-12-14T00:55:57.558Z,0.52
2023-12-14T00:58:27.899Z,0.40
2023-12-14T01:00:58.138Z,0.30
2023-12-14T01:03:25.909Z,0.40
2023-12-14T01:05:53.623Z,0.38
2023-12-14T01:08:21.412Z,0.40
2023-12-14T01:10:50.485Z,0.40
2023-12-14T01:13:18.294Z,0.38
2023-12-14T01:15:48.272Z,0.40
2023-12-14T01:18:18.345Z,0.38
2023-12-14T01:20:48.863Z,0.30
2023-12-14T01:23:16.609Z,0.40
2023-12-14T01:25:44.327Z,0.30
2023-12-14T01:28:15.106Z,0.43
2023-12-14T01:30:42.928Z,0.50
2023-12-14T01:33:11.139Z,0.40
2023-12-14T01:35:38.985Z,0.40
2023-12-14T01:38:06.952Z,0.50
2023-12-14T01:40:34.764Z,0.50
2023-12-14T01:43:10.078Z,0.30
2023-12-14T01:45:39.231Z,0.47
2023-12-14T01:48:09.089Z,0.50
2023-12-14T01:50:36.927Z,0.88
2023-12-14T01:53:07.026Z,0.30
2023-12-14T01:55:34.890Z,0.30
2023-12-14T01:58:02.624Z,0.50
2023-12-14T02:00:32.560Z,0.38
2023-12-14T02:03:01.653Z,0.32
2023-12-14T02:05:31.693Z,0.20
2023-12-14T02:08:01.919Z,0.25
2023-12-14T02:10:29.678Z,0.40
2023-12-14T02:12:57.343Z,0.30
2023-12-14T02:15:25.051Z,0.10
2023-12-14T02:17:52.748Z,0.30
2023-12-14T02:20:21.849Z,0.25
2023-12-14T02:22:54.413Z,0.20
2023-12-14T02:25:22.341Z,0.20
2023-12-14T02:27:50.453Z,0.20
2023-12-14T02:30:18.220Z,0.20
2023-12-14T02:32:46.019Z,0.20
2023-12-14T02:35:13.828Z,0.17
2023-12-14T02:37:43.880Z,0.30
2023-12-14T02:40:13.218Z,0.30
2023-12-14T02:42:40.873Z,0.22
2023-12-14T02:45:11.297Z,0.30
2023-12-14T02:47:41.353Z,0.30
2023-12-14T02:50:09.631Z,0.20
2023-12-14T02:52:37.670Z,0.30
2023-12-14T02:55:05.869Z,0.30
2023-12-14T02:57:34.914Z,0.47
2023-12-14T03:00:02.576Z,0.28
2023-12-14T03:02:32.840Z,0.15
2023-12-14T03:05:00.801Z,0.22
2023-12-14T03:07:30.917Z,0.30
2023-12-14T03:09:58.597Z,0.20
2023-12-14T03:12:26.311Z,0.20
2023-12-14T03:14:55.387Z,0.43
2023-12-14T03:17:25.078Z,0.50
2023-12-14T03:19:52.791Z,0.30
2023-12-14T03:22:20.478Z,0.43
2023-12-14T03:24:50.454Z,0.50
2023-12-14T03:27:18.162Z,0.40
2023-12-14T03:29:45.793Z,0.93
2023-12-14T03:32:14.883Z,0.35
2023-12-14T03:34:42.672Z,0.30
2023-12-14T03:37:10.401Z,0.30
2023-12-14T03:39:40.160Z,0.63
2023-12-14T03:42:09.893Z,0.50
2023-12-14T03:44:40.092Z,0.60
2023-12-14T03:47:07.850Z,0.50
2023-12-14T03:49:40.420Z,0.38
2023-12-14T03:52:08.164Z,0.43
2023-12-14T03:54:35.862Z,0.60
2023-12-14T03:57:03.575Z,0.50
2023-12-14T03:59:34.683Z,0.57
2023-12-14T04:02:02.521Z,0.70
2023-12-14T04:04:30.221Z,1.20
2023-12-14T04:06:59.390Z,1.13
2023-12-14T04:09:29.367Z,1.08
2023-12-14T04:11:57.056Z,1.13
2023-12-14T04:14:24.779Z,2.30
2023-12-14T04:16:52.504Z,12.07
2023-12-14T04:19:20.173Z,28.20
2023-12-14T04:21:47.878Z,13.82
2023-12-14T04:24:16.882Z,7.85
2023-12-14T04:26:44.560Z,3.80
2023-12-14T04:29:12.265Z,1.92
2023-12-14T04:31:42.475Z,1.38
2023-12-14T04:34:16.746Z,1.60
2023-12-14T04:36:44.558Z,1.08
2023-12-14T04:39:12.251Z,1.10
2023-12-14T04:41:41.290Z,1.20
2023-12-14T04:44:11.255Z,0.80
2023-12-14T04:46:41.565Z,2.13
2023-12-14T04:49:09.358Z,1.20
2023-12-14T04:51:37.061Z,1.10
2023-12-14T04:54:04.774Z,1.00
2023-12-14T04:56:32.448Z,0.90
2023-12-14T04:59:03.942Z,0.80
2023-12-14T05:01:34.614Z,0.70
2023-12-14T05:04:05.353Z,0.43
2023-12-14T05:06:34.288Z,0.57
2023-12-14T05:09:06.276Z,0.82
2023-12-14T05:11:36.253Z,0.70
2023-12-14T05:14:07.663Z,0.88
2023-12-14T05:16:36.442Z,0.85
2023-12-14T05:19:06.848Z,1.08
2023-12-14T05:21:34.667Z,0.80
2023-12-14T05:24:02.337Z,0.88
2023-12-14T05:26:30.047Z,0.95
2023-12-14T05:28:57.757Z,0.93
2023-12-14T05:31:26.997Z,0.90
2023-12-14T05:33:57.153Z,0.60
2023-12-14T05:36:26.998Z,0.50
2023-12-14T05:38:54.715Z,0.80
2023-12-14T05:41:22.374Z,0.80
2023-12-14T05:43:50.056Z,0.90
2023-12-14T05:46:23.976Z,1.45
2023-12-14T05:48:53.127Z,1.10
2023-12-14T05:51:30.698Z,1.70
2023-12-14T05:54:00.922Z,1.67
2023-12-14T05:56:31.004Z,2.20
2023-12-14T05:58:58.704Z,2.15
2023-12-14T06:01:26.801Z,2.58
2023-12-14T06:03:58.305Z,1.70
2023-12-14T06:06:26.216Z,1.33
2023-12-14T06:08:53.960Z,1.50
2023-12-14T06:11:21.920Z,1.92
2023-12-14T06:13:49.789Z,1.50
2023-12-14T06:16:17.682Z,2.13
2023-12-14T06:18:48.101Z,1.88
2023-12-14T06:21:17.273Z,1.90
2023-12-14T06:23:49.081Z,1.90
2023-12-14T06:26:20.603Z,1.77
2023-12-14T06:28:48.530Z,1.85
2023-12-14T06:31:16.394Z,2.58
2023-12-14T06:33:44.229Z,2.03
2023-12-14T06:36:12.238Z,2.00
2023-12-14T06:38:43.342Z,2.35
2023-12-14T06:41:11.405Z,2.63
2023-12-14T06:43:39.110Z,2.90
2023-12-14T06:46:06.903Z,2.78
2023-12-14T06:48:36.737Z,2.60
2023-12-14T06:51:07.043Z,2.33
2023-12-14T06:53:35.045Z,2.30
2023-12-14T06:56:04.119Z,1.98
2023-12-14T06:58:32.822Z,1.73
2023-12-14T07:01:00.701Z,1.77
2023-12-14T07:03:28.516Z,1.42
2023-12-14T07:05:56.454Z,1.17
2023-12-14T07:08:24.412Z,1.00
2023-12-14T07:10:52.135Z,1.30
2023-12-14T07:13:23.487Z,1.00
2023-12-14T07:15:53.673Z,0.93
2023-12-14T07:18:21.553Z,1.02
2023-12-14T07:20:49.333Z,1.08
2023-12-14T07:23:17.106Z,1.30
2023-12-14T07:25:44.761Z,0.90
2023-12-14T07:28:12.488Z,0.80
2023-12-14T07:30:41.514Z,0.90
2023-12-14T07:33:09.436Z,1.40
2023-12-14T07:35:37.264Z,1.17
2023-12-14T07:38:05.013Z,1.80
2023-12-14T07:40:32.697Z,1.85
2023-12-14T07:43:00.385Z,1.90
2023-12-14T07:45:28.089Z,1.60
2023-12-14T07:47:59.693Z,2.58
2023-12-14T07:50:27.603Z,2.80
2023-12-14T07:52:55.345Z,2.13
2023-12-14T07:55:23.199Z,2.58
2023-12-14T07:57:51.220Z,2.22
2023-12-14T08:00:19.438Z,1.40
2023-12-14T08:02:49.460Z,2.35
2023-12-14T08:05:18.605Z,3.10
2023-12-14T08:07:46.438Z,2.88
2023-12-14T08:10:14.133Z,1.60
2023-12-14T08:12:41.773Z,1.52
2023-12-14T08:15:10.195Z,1.67
2023-12-14T08:17:37.918Z,1.55
2023-12-14T08:20:10.200Z,1.75
2023-12-14T08:22:45.219Z,1.38
2023-12-14T08:25:14.369Z,1.45
2023-12-14T08:27:42.049Z,1.90
2023-12-14T08:30:10.501Z,1.67
2023-12-14T08:32:38.447Z,2.50
2023-12-14T08:35:06.915Z,1.95
2023-12-14T08:37:34.673Z,1.65
2023-12-14T08:40:04.560Z,1.77
2023-12-14T08:42:32.342Z,1.95
2023-12-14T08:45:00.052Z,1.63
2023-12-14T08:47:27.818Z,1.35
2023-12-14T08:49:55.648Z,1.45
2023-12-14T08:52:25.565Z,1.30
2023-12-14T08:54:53.250Z,1.25
2023-12-14T08:57:24.666Z,1.50
2023-12-14T08:59:52.409Z,1.63
2023-12-14T09:02:20.120Z,1.20
2023-12-14T09:04:47.881Z,1.30
2023-12-14T09:07:15.665Z,1.20
2023-12-14T09:09:45.621Z,1.42
2023-12-14T09:12:13.467Z,1.15
2023-12-14T09:14:42.520Z,1.45
2023-12-14T09:17:10.299Z,2.25
2023-12-14T09:19:38.017Z,1.58
2023-12-14T09:22:05.838Z,2.63
2023-12-14T09:24:33.562Z,3.80
2023-12-14T09:27:01.559Z,4.90
2023-12-14T09:29:29.509Z,4.38
2023-12-14T09:31:58.699Z,3.97
2023-12-14T09:34:28.636Z,6.35
2023-12-14T09:36:58.707Z,5.30
2023-12-14T09:39:29.897Z,5.68
2023-12-14T09:42:05.289Z,4.78
2023-12-14T09:44:33.215Z,3.78
2023-12-14T09:47:03.476Z,2.83
2023-12-14T09:49:34.630Z,2.35
2023-12-14T09:52:05.386Z,1.27
2023-12-14T09:54:33.113Z,2.38
2023-12-14T09:57:03.327Z,1.75
2023-12-14T09:59:31.257Z,1.23
2023-12-14T10:02:10.668Z,1.27
2023-12-14T10:04:38.654Z,1.05
2023-12-14T10:07:08.433Z,1.73
2023-12-14T10:09:38.479Z,4.40
2023-12-14T10:12:07.525Z,2.60
2023-12-14T10:14:35.726Z,1.50
2023-12-14T10:17:16.357Z,1.55
2023-12-14T10:19:48.131Z,1.52
2023-12-14T10:22:16.352Z,1.40
2023-12-14T10:24:45.165Z,1.30
2023-12-14T10:27:13.316Z,1.35
2023-12-14T10:29:41.960Z,1.30
2023-12-14T10:32:11.350Z,2.05
2023-12-14T10:34:43.364Z,1.90
2023-12-14T10:37:11.211Z,1.58
2023-12-14T10:39:39.643Z,1.70
2023-12-14T10:42:17.975Z,1.90
2023-12-14T10:47:26.414Z,1.70
2023-12-14T10:49:56.628Z,1.80
2023-12-14T10:52:27.208Z,1.80
2023-12-14T10:54:58.781Z,1.60
2023-12-14T10:57:26.696Z,1.90
2023-12-14T10:59:59.471Z,1.60
2023-12-14T11:02:29.616Z,2.38
2023-12-14T11:05:07.111Z,2.13
2023-12-14T11:07:51.103Z,1.00
2023-12-14T11:10:25.173Z,1.60
2023-12-14T11:12:52.766Z,1.55
2023-12-14T11:15:23.595Z,0.80
2023-12-14T11:18:11.134Z,0.85
2023-12-14T11:20:51.282Z,0.90
2023-12-14T11:23:28.012Z,0.90
2023-12-14T11:25:59.203Z,1.38
2023-12-14T11:28:28.325Z,1.30
2023-12-14T11:30:56.922Z,0.90
2023-12-14T11:33:25.596Z,1.02
2023-12-14T11:35:57.079Z,1.00
2023-12-14T11:38:27.334Z,0.40
2023-12-14T11:40:55.182Z,1.00
2023-12-14T11:43:23.224Z,0.70
2023-12-14T11:45:51.273Z,0.75
2023-12-14T11:48:21.134Z,0.80
2023-12-14T11:50:49.299Z,0.60
2023-12-14T11:53:18.503Z,0.85
2023-12-14T11:55:47.184Z,0.60
2023-12-14T11:58:18.066Z,0.90
2023-12-14T12:00:47.745Z,0.75
2023-12-14T12:03:16.477Z,0.68
2023-12-14T12:05:44.992Z,0.68
2023-12-14T12:08:15.939Z,0.63
2023-12-14T12:10:45.871Z,1.10
2023-12-14T12:13:14.468Z,1.15
2023-12-14T12:15:42.564Z,1.08
2023-12-14T12:18:11.368Z,1.00
2023-12-14T12:20:39.340Z,2.00
2023-12-14T12:23:07.170Z,1.33
2023-12-14T12:25:35.283Z,1.60
2023-12-14T12:28:05.467Z,1.52
2023-12-14T12:30:38.279Z,1.60
2023-12-14T12:33:08.141Z,2.63
2023-12-14T12:35:38.193Z,4.25
2023-12-14T12:38:07.996Z,1.55
2023-12-14T12:40:38.281Z,1.45
2023-12-14T12:43:10.082Z,1.70
2023-12-14T12:45:38.736Z,1.95
2023-12-14T12:48:08.275Z,1.67
2023-12-14T12:50:36.448Z,1.45
2023-12-14T12:53:06.772Z,1.50
2023-12-14T12:55:35.070Z,1.30
2023-12-14T12:58:06.310Z,1.38
2023-12-14T13:00:36.769Z,1.65
2023-12-14T13:03:04.756Z,1.23
2023-12-14T13:05:32.657Z,1.10
2023-12-14T13:08:01.079Z,0.80
2023-12-14T13:10:32.643Z,1.50
2023-12-14T13:13:03.793Z,2.83
2023-12-14T13:15:32.474Z,1.83
2023-12-14T13:18:01.756Z,1.50
2023-12-14T13:20:28.651Z,1.38
2023-12-14T13:22:58.525Z,1.52
2023-12-14T13:25:28.907Z,1.10
2023-12-14T13:27:56.667Z,0.73
2023-12-14T13:30:24.829Z,0.90
2023-12-14T13:32:56.022Z,0.90
2023-12-14T13:35:26.014Z,1.30
2023-12-14T13:37:54.093Z,1.95
2023-12-14T13:40:21.826Z,1.35
2023-12-14T13:42:59.030Z,0.93
2023-12-14T13:45:34.825Z,1.05
2023-12-14T13:48:02.706Z,0.80
2023-12-14T13:50:31.842Z,0.85
2023-12-14T13:52:59.621Z,0.82
2023-12-14T13:55:27.292Z,0.52
2023-12-14T13:57:59.271Z,0.88
2023-12-14T14:00:27.178Z,0.75
2023-12-14T14:02:55.149Z,0.77
2023-12-14T14:05:27.544Z,0.75
2023-12-14T14:07:56.914Z,0.80
2023-12-14T14:10:24.617Z,1.15
2023-12-14T14:12:52.641Z,0.90
2023-12-14T14:15:20.983Z,1.00
2023-12-14T14:17:52.779Z,1.00
2023-12-14T14:20:20.849Z,0.60
2023-12-14T14:22:48.487Z,0.80
2023-12-14T14:25:17.648Z,0.90
2023-12-14T14:27:47.956Z,1.02
2023-12-14T14:30:17.092Z,1.20
2023-12-14T14:32:45.010Z,0.80
2023-12-14T14:35:12.722Z,1.00
2023-12-14T14:37:46.492Z,0.85
2023-12-14T14:40:18.499Z,1.08
2023-12-14T14:42:46.363Z,1.00
2023-12-14T14:45:14.483Z,2.63
2023-12-14T14:47:44.559Z,1.60
2023-12-14T14:50:12.835Z,1.10
2023-12-14T14:52:40.777Z,1.25
2023-12-14T14:55:09.028Z,1.13
2023-12-14T14:57:40.174Z,1.42
2023-12-14T15:00:09.733Z,1.63
2023-12-14T15:02:39.945Z,1.40
2023-12-14T15:05:08.021Z,1.83
2023-12-14T15:07:37.935Z,1.15
2023-12-14T15:10:08.690Z,1.45
2023-12-14T15:12:36.668Z,1.30
2023-12-14T15:15:10.586Z,1.92
2023-12-14T15:17:39.058Z,2.22
2023-12-14T15:20:09.566Z,2.08
2023-12-14T15:22:37.654Z,4.78
2023-12-14T15:25:06.273Z,8.90
2023-12-14T15:27:34.037Z,8.75
2023-12-14T15:30:06.073Z,5.10
2023-12-14T15:32:35.534Z,7.22
2023-12-14T15:35:03.766Z,4.90
2023-12-14T15:37:31.463Z,6.68
2023-12-14T15:39:59.147Z,3.90
2023-12-14T15:42:26.812Z,2.08
2023-12-14T15:44:54.617Z,1.17
2023-12-14T15:47:24.746Z,2.13
2023-12-14T15:49:56.538Z,2.05
2023-12-14T15:52:24.300Z,1.63
2023-12-14T15:54:54.480Z,1.33
2023-12-14T15:57:22.119Z,1.23
2023-12-14T15:59:50.040Z,1.60
2023-12-14T16:02:17.709Z,1.73
2023-12-14T16:04:48.205Z,1.50
2023-12-14T16:07:17.642Z,1.70
2023-12-14T16:09:45.262Z,1.70
2023-12-14T16:12:12.957Z,1.90
2023-12-14T16:14:42.751Z,2.05
2023-12-14T16:17:12.604Z,1.80
2023-12-14T16:19:40.370Z,1.83
2023-12-14T16:22:08.036Z,2.00
2023-12-14T16:24:37.090Z,1.35
2023-12-14T16:27:05.055Z,1.70
2023-12-14T16:29:33.830Z,1.83
2023-12-14T16:32:01.608Z,1.88
2023-12-14T16:34:28.431Z,1.63
2023-12-14T16:36:56.128Z,1.92
2023-12-14T16:39:25.874Z,1.83
2023-12-14T16:41:57.283Z,2.42
2023-12-14T16:44:25.663Z,2.40
2023-12-14T16:46:53.859Z,2.22
2023-12-14T16:49:21.631Z,3.15
2023-12-14T16:51:49.304Z,2.97
2023-12-14T16:54:16.914Z,1.20
2023-12-14T16:56:44.723Z,1.60
2023-12-14T16:59:15.449Z,1.52
2023-12-14T17:01:43.950Z,1.30
2023-12-14T17:04:11.613Z,2.28
2023-12-14T17:06:39.339Z,2.00
2023-12-14T17:09:06.989Z,2.45
2023-12-14T17:11:34.690Z,2.28
2023-12-14T17:14:02.456Z,1.90
2023-12-14T17:16:34.308Z,1.75
2023-12-14T17:19:01.978Z,2.10
2023-12-14T17:21:30.449Z,2.30
2023-12-14T17:24:01.663Z,2.47
2023-12-14T17:26:31.801Z,2.17
2023-12-14T17:29:01.951Z,2.63
2023-12-14T17:31:29.817Z,2.38
2023-12-14T17:33:58.916Z,2.10
2023-12-14T17:36:26.669Z,2.63
2023-12-14T17:38:54.924Z,2.53
2023-12-14T17:41:23.088Z,2.85
2023-12-14T17:43:52.977Z,2.65
2023-12-14T17:46:24.002Z,3.88
2023-12-14T17:48:51.730Z,4.35
2023-12-14T17:51:20.826Z,3.67
2023-12-14T17:53:48.463Z,3.33
2023-12-14T17:56:16.547Z,3.03
2023-12-14T17:58:46.490Z,2.60
2023-12-14T18:01:14.603Z,2.70
2023-12-14T18:03:42.346Z,2.78
2023-12-14T18:06:10.083Z,2.25
2023-12-14T18:08:39.155Z,1.92
2023-12-14T18:11:06.956Z,2.00
2023-12-14T18:13:34.873Z,2.22
2023-12-14T18:16:03.405Z,2.35
2023-12-14T18:18:33.209Z,1.70
2023-12-14T18:21:01.277Z,2.10
2023-12-14T18:23:31.401Z,2.10
2023-12-14T18:26:02.795Z,2.00
2023-12-14T18:28:32.746Z,2.35
2023-12-14T18:31:02.839Z,2.28
2023-12-14T18:33:30.629Z,2.20
2023-12-14T18:35:58.485Z,2.30
2023-12-14T18:38:26.707Z,2.10
2023-12-14T18:40:54.490Z,2.42
2023-12-14T18:43:23.709Z,1.88
2023-12-14T18:45:51.341Z,1.85
2023-12-14T18:48:19.145Z,2.25
2023-12-14T18:50:46.912Z,2.65
2023-12-14T18:53:14.769Z,1.83
2023-12-14T18:55:42.547Z,1.83
2023-12-14T18:58:11.624Z,1.95
2023-12-14T19:00:40.723Z,2.45
2023-12-14T19:03:08.585Z,2.72
2023-12-14T19:05:38.698Z,2.63
2023-12-14T19:08:06.669Z,2.20
2023-12-14T19:10:35.130Z,2.25
2023-12-14T19:13:03.797Z,2.20
2023-12-14T19:15:34.040Z,1.83
2023-12-14T19:18:05.737Z,2.08
2023-12-14T19:20:33.559Z,1.48
2023-12-14T19:23:01.919Z,1.95
2023-12-14T19:25:29.629Z,2.25
2023-12-14T19:27:57.338Z,1.88
2023-12-14T19:30:25.159Z,2.33
2023-12-14T19:32:53.413Z,2.55
2023-12-14T19:35:22.875Z,2.50
2023-12-14T19:37:50.711Z,2.22
2023-12-14T19:40:19.090Z,2.15
2023-12-14T19:42:46.894Z,1.80
2023-12-14T19:45:18.289Z,2.13
2023-12-14T19:47:48.512Z,1.90
2023-12-14T19:50:19.267Z,2.25
2023-12-14T19:52:49.059Z,2.92
2023-12-14T19:55:19.004Z,4.78
2023-12-14T19:57:50.744Z,3.97
2023-12-14T20:00:20.962Z,3.38
2023-12-14T20:02:51.044Z,5.63
2023-12-14T20:05:19.017Z,7.43
2023-12-14T20:07:50.278Z,9.55
2023-12-14T20:10:17.973Z,4.63
2023-12-14T20:12:45.924Z,2.33
2023-12-14T20:15:14.347Z,5.15
2023-12-14T20:17:44.427Z,2.88
2023-12-14T20:20:12.553Z,1.95
2023-12-14T20:22:43.280Z,2.58
2023-12-14T20:25:12.354Z,4.53
2023-12-14T20:27:40.254Z,6.57
2023-12-14T20:30:08.743Z,4.78
2023-12-14T20:32:36.655Z,2.88
2023-12-14T20:35:07.167Z,3.47
2023-12-14T20:37:35.276Z,3.17
2023-12-14T20:40:14.452Z,3.10
2023-12-14T20:42:42.404Z,2.72
2023-12-14T20:45:10.537Z,2.97
2023-12-14T20:47:39.366Z,3.08
2023-12-14T20:50:10.602Z,3.38
2023-12-14T20:52:41.050Z,3.30
2023-12-14T20:55:09.054Z,3.28
2023-12-14T20:57:38.676Z,4.38
2023-12-14T21:00:07.480Z,4.45
2023-12-14T21:02:35.232Z,4.57
2023-12-14T21:05:02.942Z,4.03
2023-12-14T21:07:33.735Z,3.47
2023-12-14T21:10:01.834Z,3.63
2023-12-14T21:12:29.689Z,4.13
2023-12-14T21:15:01.059Z,3.17
2023-12-14T21:17:28.929Z,3.38
2023-12-14T21:19:58.988Z,4.00
2023-12-14T21:22:26.736Z,3.88
2023-12-14T21:25:01.292Z,3.90
2023-12-14T21:27:47.907Z,3.67
2023-12-14T21:30:20.011Z,3.13
2023-12-14T21:32:48.755Z,2.92
2023-12-14T21:35:18.877Z,2.67
2023-12-14T21:37:46.880Z,3.00
2023-12-14T21:40:16.079Z,2.65
2023-12-14T21:42:43.879Z,2.90
2023-12-14T21:45:12.317Z,2.20
2023-12-14T21:47:41.666Z,2.70
2023-12-14T21:50:10.020Z,3.30
2023-12-14T21:52:37.780Z,2.40
2023-12-14T21:55:05.951Z,2.67
2023-12-14T21:57:36.275Z,3.30
2023-12-14T22:00:07.066Z,2.35
2023-12-14T22:02:34.899Z,2.92
2023-12-14T22:05:04.558Z,2.28
2023-12-14T22:07:34.794Z,2.83
2023-12-14T22:10:05.336Z,2.47
2023-12-14T22:12:33.181Z,2.22
2023-12-14T22:15:00.995Z,2.20
2023-12-14T22:17:28.785Z,2.63
2023-12-14T22:19:56.611Z,2.30
2023-12-14T22:22:25.748Z,3.03
2023-12-14T22:24:53.520Z,3.83
2023-12-14T22:27:21.164Z,4.72
2023-12-14T22:29:48.842Z,4.35
2023-12-14T22:32:18.940Z,3.97
2023-12-14T22:34:46.654Z,2.97
2023-12-14T22:37:14.325Z,3.17
2023-12-14T22:39:43.377Z,2.97
2023-12-14T22:42:11.757Z,2.90
2023-12-14T22:44:41.837Z,2.67
2023-12-14T22:47:09.686Z,2.60
2023-12-14T22:49:37.448Z,2.53
2023-12-14T22:52:05.368Z,2.20
2023-12-14T22:54:35.224Z,2.00
2023-12-14T22:57:08.009Z,2.00
2023-12-14T22:59:38.915Z,1.77
2023-12-14T23:02:06.746Z,2.58
2023-12-14T23:04:35.152Z,2.45
2023-12-14T23:07:03.262Z,2.03
2023-12-14T23:09:31.006Z,2.60
2023-12-14T23:11:58.850Z,2.03
2023-12-14T23:14:27.961Z,2.10
2023-12-14T23:16:56.773Z,2.20
2023-12-14T23:19:24.692Z,2.22
2023-12-14T23:21:52.471Z,2.60
2023-12-14T23:24:20.942Z,1.85
2023-12-14T23:26:48.679Z,2.40
2023-12-14T23:29:16.403Z,1.50
2023-12-14T23:31:47.686Z,1.77
2023-12-14T23:34:17.759Z,1.80
2023-12-14T23:36:45.523Z,2.30
2023-12-14T23:39:15.579Z,2.08
2023-12-14T23:41:43.343Z,2.25
2023-12-14T23:44:14.221Z,2.33
2023-12-14T23:46:42.503Z,2.50
2023-12-14T23:49:11.623Z,2.15
2023-12-14T23:51:39.326Z,2.17
2023-12-14T23:54:09.071Z,2.50
2023-12-14T23:56:36.859Z,2.33
2023-12-14T23:59:04.582Z,2.30
